Oliver Hazard Perry — KOHZ — position and weather

sailwx.info

Track history (hours):
 
Tides and Currents Weather Stations Pressure Air Temp Water Temp Dewpoint Dewpoint Depression Visibility Wind Speed Wind Dir Waves Ship Positions

Oliver Hazard Perry

Owner: Oliver Hazard Perry Rhode Island, Newport, RI. More information available from US FCC via Universal Licensing System and Coast Guard Vessel Documentation Center.

Last reported at 2018-Jun-12 07:50 UTC. Time now 2018-Jun-20 20:23 UTC.
Position N 41°35' W 071°25'.
Warning: this ship's position is 8 days out of date.

; draft 4 m.

Type: Sailing vessel. MMSI: 367658110.

Date/timePositionNaut miles runAvg speedWind from/ knotsBaromVisibWave heightAir tempDewpointWater temp
2018-Jun-12 07:50N 41°35' W 071°25'0 0.0
2018-Jun-11 19:00N 41°35' W 071°24'  
2018-Jun-05 12:32N 38°57' W 074°43'1 8.0
2018-Jun-05 12:27N 38°57' W 074°44'4 8.0
2018-Jun-05 12:01N 38°54' W 074°47'4 8.1
2018-Jun-05 11:29N 38°50' W 074°50'4 8.1
2018-Jun-05 11:01N 38°49' W 074°54'4 8.8
2018-Jun-05 10:31N 38°48' W 074°60'5 9.0
2018-Jun-05 10:00N 38°49' W 075°06'0 0.1
2018-Jun-05 05:08N 38°49' W 075°06'0 0.0
2018-Jun-05 04:50N 38°49' W 075°06'0 0.0
2018-Jun-05 04:08N 38°49' W 075°06'0 0.0
2018-Jun-05 03:56N 38°49' W 075°06'0 0.0
2018-Jun-05 03:26N 38°49' W 075°06'0 0.0
2018-Jun-05 02:17N 38°49' W 075°06'20 2.5
2018-Jun-04 18:15N 39°08' W 075°13'3 8.0
2018-Jun-04 17:52N 39°10' W 075°16'3 7.9
2018-Jun-04 17:30N 39°13' W 075°17'4 8.0
2018-Jun-04 17:00N 39°16' W 075°20'4 8.1
2018-Jun-04 16:30N 39°19' W 075°24'4 8.8
2018-Jun-04 16:00N 39°22' W 075°28'4 8.8
2018-Jun-04 15:30N 39°25' W 075°32'4 8.7
2018-Jun-04 15:00N 39°30' W 075°34'5 9.7
2018-Jun-04 14:30N 39°34' W 075°33'4 8.8
2018-Jun-04 14:00N 39°39' W 075°33'510.5
2018-Jun-04 13:30N 39°44' W 075°30'5 9.9
2018-Jun-04 13:00N 39°48' W 075°26'510.2
2018-Jun-04 12:30N 39°50' W 075°21'5 9.7
2018-Jun-04 12:00N 39°51' W 075°15'4 8.4
2018-Jun-04 11:30N 39°53' W 075°10'3 6.4
2018-Jun-04 11:00N 39°56' W 075°08'1 1.5
2018-Jun-04 10:25N 39°57' W 075°08'0 0.0
2018-Jun-04 09:58N 39°57' W 075°08'0 0.0
2018-Jun-04 09:28N 39°57' W 075°08'0 0.0
2018-Jun-04 08:58N 39°57' W 075°08'0 0.0
2018-Jun-04 08:28N 39°57' W 075°08'0 0.0
2018-Jun-04 07:58N 39°57' W 075°08'0 0.0
2018-Jun-04 07:28N 39°57' W 075°08'0 0.0
2018-Jun-04 06:58N 39°57' W 075°08'0 0.0
2018-Jun-04 06:28N 39°57' W 075°08'0 0.0
2018-Jun-04 05:52N 39°57' W 075°08'0 0.0
2018-Jun-04 05:28N 39°57' W 075°08'0 0.0
2018-Jun-04 04:58N 39°57' W 075°08'0 0.0
2018-Jun-04 04:28N 39°57' W 075°08'0 0.0
2018-Jun-04 03:58N 39°57' W 075°08'0 0.0
2018-Jun-04 03:28N 39°57' W 075°08'0 0.0
2018-Jun-04 02:58N 39°57' W 075°08'0 0.0
2018-Jun-04 02:28N 39°57' W 075°08'0 0.0
2018-Jun-04 01:58N 39°57' W 075°08'0 0.0
2018-Jun-04 01:28N 39°57' W 075°08'0 0.0
2018-Jun-04 00:58N 39°57' W 075°08'0 0.0
2018-Jun-04 00:28N 39°57' W 075°08'0 0.0
2018-Jun-03 23:58N 39°57' W 075°08'0 0.0
2018-Jun-03 23:28N 39°57' W 075°08'0 0.0
2018-Jun-03 22:58N 39°57' W 075°08'0 0.0
2018-Jun-03 22:28N 39°57' W 075°08'0 0.0
2018-Jun-03 21:58N 39°57' W 075°08'0 0.0
2018-Jun-03 21:28N 39°57' W 075°08'0 0.0
2018-Jun-03 20:58N 39°57' W 075°08'0 0.0
2018-Jun-03 20:28N 39°57' W 075°08'0 0.0
2018-Jun-03 19:58N 39°57' W 075°08'0 0.0
2018-Jun-03 19:28N 39°57' W 075°08'0 0.0
2018-Jun-03 18:58N 39°57' W 075°08'0 0.0
2018-Jun-03 18:28N 39°57' W 075°08'0 0.0
2018-Jun-03 17:58N 39°57' W 075°08'0 0.0
2018-Jun-03 17:28N 39°57' W 075°08'0 0.0
2018-Jun-03 16:58N 39°57' W 075°08'0 0.0
2018-Jun-03 16:28N 39°57' W 075°08'0 0.0
2018-Jun-03 15:58N 39°57' W 075°08'0 0.0
2018-Jun-03 15:28N 39°57' W 075°08'0 0.0
2018-Jun-03 14:58N 39°57' W 075°08'0 0.0
2018-Jun-03 14:28N 39°57' W 075°08'0 0.0
2018-Jun-03 13:58N 39°57' W 075°08'0 0.0
2018-Jun-03 13:28N 39°57' W 075°08'0 0.0
2018-Jun-03 12:58N 39°57' W 075°08'0 0.0
2018-Jun-03 12:28N 39°57' W 075°08'0 0.0
2018-Jun-03 11:58N 39°57' W 075°08'0 0.0
2018-Jun-03 11:28N 39°57' W 075°08'0 0.0
2018-Jun-03 10:58N 39°57' W 075°08'0 0.0
2018-Jun-03 10:28N 39°57' W 075°08'0 0.0
2018-Jun-03 09:58N 39°57' W 075°08'0 0.0
2018-Jun-03 09:28N 39°57' W 075°08'0 0.0
2018-Jun-03 08:58N 39°57' W 075°08'0 0.0
2018-Jun-03 08:28N 39°57' W 075°08'0 0.0
2018-Jun-03 07:58N 39°57' W 075°08'0 0.0
2018-Jun-03 07:28N 39°57' W 075°08'0 0.0
2018-Jun-03 06:58N 39°57' W 075°08'0 0.0
2018-Jun-03 06:28N 39°57' W 075°08'0 0.0
2018-Jun-03 05:58N 39°57' W 075°08'0 0.0
2018-Jun-03 05:28N 39°57' W 075°08'0 0.0
2018-Jun-03 04:58N 39°57' W 075°08'0 0.0
2018-Jun-03 04:28N 39°57' W 075°08'0 0.0
2018-Jun-03 03:58N 39°57' W 075°08'0 0.0
2018-Jun-03 03:28N 39°57' W 075°08'0 0.0
2018-Jun-03 02:58N 39°57' W 075°08'0 0.0
2018-Jun-03 02:28N 39°57' W 075°08'0 0.0
2018-Jun-03 01:58N 39°57' W 075°08'0 0.0
2018-Jun-03 01:28N 39°57' W 075°08'0 0.0
2018-Jun-03 00:58N 39°57' W 075°08'0 0.0
2018-Jun-03 00:28N 39°57' W 075°08'0 0.0
2018-Jun-02 23:58N 39°57' W 075°08'0 0.0
2018-Jun-02 23:28N 39°57' W 075°08'0 0.0
2018-Jun-02 22:58N 39°57' W 075°08'0 0.0
2018-Jun-02 22:28N 39°57' W 075°08'0 0.0
2018-Jun-02 21:58N 39°57' W 075°08'0 0.0
2018-Jun-02 21:28N 39°57' W 075°08'0 0.0
2018-Jun-02 20:58N 39°57' W 075°08'0 0.0
2018-Jun-02 20:28N 39°57' W 075°08'0 0.0
2018-Jun-02 19:58N 39°57' W 075°08'0 0.0
2018-Jun-02 19:28N 39°57' W 075°08'0 0.0
2018-Jun-02 18:58N 39°57' W 075°08'0 0.0
2018-Jun-02 18:28N 39°57' W 075°08'0 0.0
2018-Jun-02 17:58N 39°57' W 075°08'0 0.0
2018-Jun-02 17:28N 39°57' W 075°08'0 0.0
2018-Jun-02 16:58N 39°57' W 075°08'0 0.0
2018-Jun-02 16:28N 39°57' W 075°08'0 0.0
2018-Jun-02 15:58N 39°57' W 075°08'0 0.0
2018-Jun-02 15:28N 39°57' W 075°08'0 0.0
2018-Jun-02 14:58N 39°57' W 075°08'0 0.0
2018-Jun-02 14:28N 39°57' W 075°08'0 0.0
2018-Jun-02 13:58N 39°57' W 075°08'0 0.0
2018-Jun-02 13:28N 39°57' W 075°08'0 0.0
2018-Jun-02 12:58N 39°57' W 075°08'0 0.0
2018-Jun-02 12:28N 39°57' W 075°08'0 0.0
2018-Jun-02 11:58N 39°57' W 075°08'0 0.0
2018-Jun-02 11:28N 39°57' W 075°08'0 0.0
2018-Jun-02 10:58N 39°57' W 075°08'0 0.0
2018-Jun-02 10:28N 39°57' W 075°08'0 0.0
2018-Jun-02 09:58N 39°57' W 075°08'0 0.0
2018-Jun-02 09:28N 39°57' W 075°08'0 0.0
2018-Jun-02 08:58N 39°57' W 075°08'0 0.0
2018-Jun-02 08:28N 39°57' W 075°08'0 0.0
2018-Jun-02 07:58N 39°57' W 075°08'  
Track history (hours):
 
Tides and Currents Weather Stations Pressure Air Temp Water Temp Dewpoint Dewpoint Depression Visibility Wind Speed Wind Dir Waves Ship Positions

Oliver Hazard Perry

Owner: Oliver Hazard Perry Rhode Island, Newport, RI. More information available from US FCC via Universal Licensing System and Coast Guard Vessel Documentation Center.

Last reported at 2018-Jun-12 07:50 UTC. Time now 2018-Jun-20 20:23 UTC.
Position N 41°35' W 071°25'.
Warning: this ship's position is 8 days out of date.

; draft 4 m.

Type: Sailing vessel. MMSI: 367658110.

Date/timePositionNaut miles runAvg speedWind from/ knotsBaromVisibWave heightAir tempDewpointWater temp
2018-Jun-12 07:50N 41°35' W 071°25'0 0.0
2018-Jun-11 19:00N 41°35' W 071°24'  
2018-Jun-05 12:32N 38°57' W 074°43'1 8.0
2018-Jun-05 12:27N 38°57' W 074°44'4 8.0
2018-Jun-05 12:01N 38°54' W 074°47'4 8.1
2018-Jun-05 11:29N 38°50' W 074°50'4 8.1
2018-Jun-05 11:01N 38°49' W 074°54'4 8.8
2018-Jun-05 10:31N 38°48' W 074°60'5 9.0
2018-Jun-05 10:00N 38°49' W 075°06'0 0.1
2018-Jun-05 05:08N 38°49' W 075°06'0 0.0
2018-Jun-05 04:50N 38°49' W 075°06'0 0.0
2018-Jun-05 04:08N 38°49' W 075°06'0 0.0
2018-Jun-05 03:56N 38°49' W 075°06'0 0.0
2018-Jun-05 03:26N 38°49' W 075°06'0 0.0
2018-Jun-05 02:17N 38°49' W 075°06'20 2.5
2018-Jun-04 18:15N 39°08' W 075°13'3 8.0
2018-Jun-04 17:52N 39°10' W 075°16'3 7.9
2018-Jun-04 17:30N 39°13' W 075°17'4 8.0
2018-Jun-04 17:00N 39°16' W 075°20'4 8.1
2018-Jun-04 16:30N 39°19' W 075°24'4 8.8
2018-Jun-04 16:00N 39°22' W 075°28'4 8.8
2018-Jun-04 15:30N 39°25' W 075°32'4 8.7
2018-Jun-04 15:00N 39°30' W 075°34'5 9.7
2018-Jun-04 14:30N 39°34' W 075°33'4 8.8
2018-Jun-04 14:00N 39°39' W 075°33'510.5
2018-Jun-04 13:30N 39°44' W 075°30'5 9.9
2018-Jun-04 13:00N 39°48' W 075°26'510.2
2018-Jun-04 12:30N 39°50' W 075°21'5 9.7
2018-Jun-04 12:00N 39°51' W 075°15'4 8.4
2018-Jun-04 11:30N 39°53' W 075°10'3 6.4
2018-Jun-04 11:00N 39°56' W 075°08'1 1.5
2018-Jun-04 10:25N 39°57' W 075°08'0 0.0
2018-Jun-04 09:58N 39°57' W 075°08'0 0.0
2018-Jun-04 09:28N 39°57' W 075°08'0 0.0
2018-Jun-04 08:58N 39°57' W 075°08'0 0.0
2018-Jun-04 08:28N 39°57' W 075°08'0 0.0
2018-Jun-04 07:58N 39°57' W 075°08'0 0.0
2018-Jun-04 07:28N 39°57' W 075°08'0 0.0
2018-Jun-04 06:58N 39°57' W 075°08'0 0.0
2018-Jun-04 06:28N 39°57' W 075°08'0 0.0
2018-Jun-04 05:52N 39°57' W 075°08'0 0.0
2018-Jun-04 05:28N 39°57' W 075°08'0 0.0
2018-Jun-04 04:58N 39°57' W 075°08'0 0.0
2018-Jun-04 04:28N 39°57' W 075°08'0 0.0
2018-Jun-04 03:58N 39°57' W 075°08'0 0.0
2018-Jun-04 03:28N 39°57' W 075°08'0 0.0
2018-Jun-04 02:58N 39°57' W 075°08'0 0.0
2018-Jun-04 02:28N 39°57' W 075°08'0 0.0
2018-Jun-04 01:58N 39°57' W 075°08'0 0.0
2018-Jun-04 01:28N 39°57' W 075°08'0 0.0
2018-Jun-04 00:58N 39°57' W 075°08'0 0.0
2018-Jun-04 00:28N 39°57' W 075°08'0 0.0
2018-Jun-03 23:58N 39°57' W 075°08'0 0.0
2018-Jun-03 23:28N 39°57' W 075°08'0 0.0
2018-Jun-03 22:58N 39°57' W 075°08'0 0.0
2018-Jun-03 22:28N 39°57' W 075°08'0 0.0
2018-Jun-03 21:58N 39°57' W 075°08'0 0.0
2018-Jun-03 21:28N 39°57' W 075°08'0 0.0
2018-Jun-03 20:58N 39°57' W 075°08'0 0.0
2018-Jun-03 20:28N 39°57' W 075°08'0 0.0
2018-Jun-03 19:58N 39°57' W 075°08'0 0.0
2018-Jun-03 19:28N 39°57' W 075°08'0 0.0
2018-Jun-03 18:58N 39°57' W 075°08'0 0.0
2018-Jun-03 18:28N 39°57' W 075°08'0 0.0
2018-Jun-03 17:58N 39°57' W 075°08'0 0.0
2018-Jun-03 17:28N 39°57' W 075°08'0 0.0
2018-Jun-03 16:58N 39°57' W 075°08'0 0.0
2018-Jun-03 16:28N 39°57' W 075°08'0 0.0
2018-Jun-03 15:58N 39°57' W 075°08'0 0.0
2018-Jun-03 15:28N 39°57' W 075°08'0 0.0
2018-Jun-03 14:58N 39°57' W 075°08'0 0.0
2018-Jun-03 14:28N 39°57' W 075°08'0 0.0
2018-Jun-03 13:58N 39°57' W 075°08'0 0.0
2018-Jun-03 13:28N 39°57' W 075°08'0 0.0
2018-Jun-03 12:58N 39°57' W 075°08'0 0.0
2018-Jun-03 12:28N 39°57' W 075°08'0 0.0
2018-Jun-03 11:58N 39°57' W 075°08'0 0.0
2018-Jun-03 11:28N 39°57' W 075°08'0 0.0
2018-Jun-03 10:58N 39°57' W 075°08'0 0.0
2018-Jun-03 10:28N 39°57' W 075°08'0 0.0
2018-Jun-03 09:58N 39°57' W 075°08'0 0.0
2018-Jun-03 09:28N 39°57' W 075°08'0 0.0
2018-Jun-03 08:58N 39°57' W 075°08'0 0.0
2018-Jun-03 08:28N 39°57' W 075°08'0 0.0
2018-Jun-03 07:58N 39°57' W 075°08'0 0.0
2018-Jun-03 07:28N 39°57' W 075°08'0 0.0
2018-Jun-03 06:58N 39°57' W 075°08'0 0.0
2018-Jun-03 06:28N 39°57' W 075°08'0 0.0
2018-Jun-03 05:58N 39°57' W 075°08'0 0.0
2018-Jun-03 05:28N 39°57' W 075°08'0 0.0
2018-Jun-03 04:58N 39°57' W 075°08'0 0.0
2018-Jun-03 04:28N 39°57' W 075°08'0 0.0
2018-Jun-03 03:58N 39°57' W 075°08'0 0.0
2018-Jun-03 03:28N 39°57' W 075°08'0 0.0
2018-Jun-03 02:58N 39°57' W 075°08'0 0.0
2018-Jun-03 02:28N 39°57' W 075°08'0 0.0
2018-Jun-03 01:58N 39°57' W 075°08'0 0.0
2018-Jun-03 01:28N 39°57' W 075°08'0 0.0
2018-Jun-03 00:58N 39°57' W 075°08'0 0.0
2018-Jun-03 00:28N 39°57' W 075°08'0 0.0
2018-Jun-02 23:58N 39°57' W 075°08'0 0.0
2018-Jun-02 23:28N 39°57' W 075°08'0 0.0
2018-Jun-02 22:58N 39°57' W 075°08'0 0.0
2018-Jun-02 22:28N 39°57' W 075°08'0 0.0
2018-Jun-02 21:58N 39°57' W 075°08'0 0.0
2018-Jun-02 21:28N 39°57' W 075°08'0 0.0
2018-Jun-02 20:58N 39°57' W 075°08'0 0.0
2018-Jun-02 20:28N 39°57' W 075°08'0 0.0
2018-Jun-02 19:58N 39°57' W 075°08'0 0.0
2018-Jun-02 19:28N 39°57' W 075°08'0 0.0
2018-Jun-02 18:58N 39°57' W 075°08'0 0.0
2018-Jun-02 18:28N 39°57' W 075°08'0 0.0
2018-Jun-02 17:58N 39°57' W 075°08'0 0.0
2018-Jun-02 17:28N 39°57' W 075°08'0 0.0
2018-Jun-02 16:58N 39°57' W 075°08'0 0.0
2018-Jun-02 16:28N 39°57' W 075°08'0 0.0
2018-Jun-02 15:58N 39°57' W 075°08'0 0.0
2018-Jun-02 15:28N 39°57' W 075°08'0 0.0
2018-Jun-02 14:58N 39°57' W 075°08'0 0.0
2018-Jun-02 14:28N 39°57' W 075°08'0 0.0
2018-Jun-02 13:58N 39°57' W 075°08'0 0.0
2018-Jun-02 13:28N 39°57' W 075°08'0 0.0
2018-Jun-02 12:58N 39°57' W 075°08'0 0.0
2018-Jun-02 12:28N 39°57' W 075°08'0 0.0
2018-Jun-02 11:58N 39°57' W 075°08'0 0.0
2018-Jun-02 11:28N 39°57' W 075°08'0 0.0
2018-Jun-02 10:58N 39°57' W 075°08'0 0.0
2018-Jun-02 10:28N 39°57' W 075°08'0 0.0
2018-Jun-02 09:58N 39°57' W 075°08'0 0.0
2018-Jun-02 09:28N 39°57' W 075°08'0 0.0
2018-Jun-02 08:58N 39°57' W 075°08'0 0.0
2018-Jun-02 08:28N 39°57' W 075°08'0 0.0
2018-Jun-02 07:58N 39°57' W 075°08'  

Dump ship's entire track history